createdAt,value
2018-04-22T00:01:30.619Z,13.97
2018-04-22T00:03:58.050Z,15.30
2018-04-22T00:06:25.486Z,21.50
2018-04-22T00:08:52.927Z,18.57
2018-04-22T00:11:21.118Z,16.33
2018-04-22T00:13:48.558Z,17.53
2018-04-22T00:16:16.764Z,16.03
2018-04-22T00:18:44.975Z,21.83
2018-04-22T00:21:12.415Z,14.00
2018-04-22T00:23:39.863Z,15.70
2018-04-22T00:26:07.301Z,16.07
2018-04-22T00:28:34.734Z,14.27
2018-04-22T00:31:02.172Z,15.40
2018-04-22T00:33:29.611Z,14.83
2018-04-22T00:35:57.047Z,16.00
2018-04-22T00:38:24.494Z,14.80
2018-04-22T00:40:51.919Z,15.50
2018-04-22T00:43:19.372Z,17.90
2018-04-22T00:45:47.584Z,20.13
2018-04-22T00:48:15.031Z,14.50
2018-04-22T00:50:42.487Z,14.70
2018-04-22T00:53:09.944Z,13.97
2018-04-22T00:55:37.383Z,14.20
2018-04-22T00:58:04.813Z,14.93
2018-04-22T01:00:33.031Z,16.40
2018-04-22T01:03:00.472Z,16.20
2018-04-22T01:05:27.909Z,15.97
2018-04-22T01:07:56.117Z,21.30
2018-04-22T01:10:23.570Z,18.83
2018-04-22T01:12:51.028Z,19.60
2018-04-22T01:15:18.458Z,16.47
2018-04-22T01:17:45.890Z,18.10
2018-04-22T01:20:13.337Z,14.57
2018-04-22T01:22:42.113Z,18.40
2018-04-22T01:25:10.699Z,13.50
2018-04-22T01:27:38.147Z,13.10
2018-04-22T01:30:05.603Z,14.70
2018-04-22T01:32:33.051Z,12.30
2018-04-22T01:35:00.530Z,13.77
2018-04-22T01:37:27.971Z,13.73
2018-04-22T01:39:55.427Z,14.00
2018-04-22T01:42:22.875Z,13.90
2018-04-22T01:44:50.333Z,13.93
2018-04-22T01:47:17.770Z,16.87
2018-04-22T01:49:45.209Z,14.40
2018-04-22T01:52:12.683Z,13.87
2018-04-22T01:54:40.139Z,13.00
2018-04-22T01:57:07.569Z,13.50
2018-04-22T01:59:35.777Z,13.20
2018-04-22T02:02:03.225Z,16.13
2018-04-22T02:04:30.646Z,15.73
2018-04-22T02:06:59.379Z,14.00
2018-04-22T02:09:26.828Z,16.10
2018-04-22T02:11:54.282Z,19.27
2018-04-22T02:14:21.710Z,16.23
2018-04-22T02:16:49.156Z,15.60
2018-04-22T02:19:17.372Z,16.53
2018-04-22T02:21:44.819Z,19.70
2018-04-22T02:24:12.246Z,24.63
2018-04-22T02:26:40.463Z,18.73
2018-04-22T02:29:07.911Z,17.23
2018-04-22T02:31:36.176Z,17.20
2018-04-22T02:34:03.609Z,18.47
2018-04-22T02:36:31.042Z,17.00
2018-04-22T02:38:58.553Z,15.07
2018-04-22T02:41:25.989Z,13.97
2018-04-22T02:43:53.430Z,16.63
2018-04-22T02:46:21.639Z,17.73
2018-04-22T02:48:49.083Z,13.97
2018-04-22T02:51:16.523Z,13.23
2018-04-22T02:53:44.731Z,17.20
2018-04-22T02:56:12.179Z,15.00
2018-04-22T02:58:39.623Z,13.53
2018-04-22T03:01:07.069Z,15.60
2018-04-22T03:03:34.497Z,14.63
2018-04-22T03:06:01.931Z,13.97
2018-04-22T03:08:29.370Z,15.30
2018-04-22T03:10:56.818Z,14.17
2018-04-22T03:13:24.258Z,15.10
2018-04-22T03:15:51.694Z,16.37
2018-04-22T03:18:19.911Z,16.00
2018-04-22T03:20:47.354Z,20.17
2018-04-22T03:23:14.801Z,14.87
2018-04-22T03:25:42.230Z,14.13
2018-04-22T03:28:10.454Z,14.53
2018-04-22T03:30:37.899Z,14.73
2018-04-22T03:33:05.348Z,15.03
2018-04-22T03:35:32.789Z,13.27
2018-04-22T03:38:00.228Z,13.90
2018-04-22T03:40:28.063Z,12.63
2018-04-22T03:42:55.507Z,13.80
2018-04-22T03:45:22.955Z,15.40
2018-04-22T03:47:50.406Z,15.20
2018-04-22T03:50:17.850Z,16.03
2018-04-22T03:52:45.321Z,15.07
2018-04-22T03:55:12.747Z,16.00
2018-04-22T03:57:40.190Z,15.40
2018-04-22T04:00:08.401Z,15.53
2018-04-22T04:02:35.876Z,15.67
2018-04-22T04:05:03.279Z,16.80
2018-04-22T04:07:31.493Z,18.60
2018-04-22T04:10:00.435Z,19.80
2018-04-22T04:12:28.691Z,19.83
2018-04-22T04:14:56.128Z,19.90
2018-04-22T04:17:23.570Z,20.20
2018-04-22T04:20:02.862Z,22.83
2018-04-22T04:22:41.864Z,21.10
2018-04-22T04:25:39.848Z,19.50
2018-04-22T04:28:07.355Z,21.83
2018-04-22T04:30:34.810Z,20.53
2018-04-22T04:33:02.266Z,21.03
2018-04-22T04:35:29.702Z,20.93
2018-04-22T04:37:57.141Z,21.30
2018-04-22T04:40:25.354Z,20.63
2018-04-22T04:42:52.801Z,21.60
2018-04-22T04:45:20.236Z,21.77
2018-04-22T04:47:48.438Z,20.47
2018-04-22T04:50:15.879Z,22.03
2018-04-22T04:52:43.309Z,22.67
2018-04-22T04:55:11.517Z,24.83
2018-04-22T04:57:38.952Z,21.23
2018-04-22T05:00:07.165Z,21.90
2018-04-22T05:02:34.603Z,21.20
2018-04-22T05:05:02.046Z,19.43
2018-04-22T05:07:30.252Z,20.13
2018-04-22T05:09:57.695Z,19.73
2018-04-22T05:12:25.133Z,21.80
2018-04-22T05:14:52.571Z,18.97
2018-04-22T05:17:20.775Z,20.93
2018-04-22T05:19:48.207Z,19.17
2018-04-22T05:22:16.410Z,23.70
2018-04-22T05:24:43.851Z,20.53
2018-04-22T05:27:11.291Z,20.30
2018-04-22T05:29:39.501Z,21.23
2018-04-22T05:32:06.933Z,19.77
2018-04-22T05:34:34.370Z,21.40
2018-04-22T05:37:15.305Z,20.07
2018-04-22T05:39:42.742Z,20.47
2018-04-22T05:42:10.236Z,18.87
2018-04-22T05:44:37.672Z,19.40
2018-04-22T05:47:05.107Z,19.27
2018-04-22T05:49:32.553Z,18.40
2018-04-22T05:52:12.659Z,17.23
2018-04-22T05:54:40.107Z,17.30
2018-04-22T05:57:07.979Z,17.90
2018-04-22T05:59:35.410Z,16.40
2018-04-22T06:02:02.847Z,16.97
2018-04-22T06:04:30.309Z,18.77
2018-04-22T06:06:57.747Z,16.67
2018-04-22T06:09:25.213Z,18.47
2018-04-22T06:11:52.636Z,17.07
2018-04-22T06:14:20.830Z,17.13
2018-04-22T06:16:48.439Z,17.70
2018-04-22T06:19:16.435Z,16.93
2018-04-22T06:21:43.874Z,14.90
2018-04-22T06:24:12.262Z,15.70
2018-04-22T06:26:39.710Z,15.37
2018-04-22T06:29:07.155Z,16.20
2018-04-22T06:31:34.676Z,17.10
2018-04-22T06:34:02.883Z,15.57
2018-04-22T06:36:30.323Z,15.67
2018-04-22T06:38:57.775Z,15.80
2018-04-22T06:41:25.223Z,16.70
2018-04-22T06:43:52.674Z,16.70
2018-04-22T06:46:20.114Z,17.70
2018-04-22T06:48:47.546Z,19.43
2018-04-22T06:51:15.769Z,16.70
2018-04-22T06:53:43.975Z,16.60
2018-04-22T06:56:11.407Z,16.90
2018-04-22T06:58:38.850Z,17.70
2018-04-22T07:01:06.326Z,16.33
2018-04-22T07:03:33.769Z,16.03
2018-04-22T07:06:01.215Z,15.30
2018-04-22T07:08:28.685Z,18.60
2018-04-22T07:10:56.194Z,16.00
2018-04-22T07:13:24.416Z,15.13
2018-04-22T07:15:51.874Z,16.83
2018-04-22T07:18:19.319Z,20.50
2018-04-22T07:20:46.767Z,19.27
2018-04-22T07:23:14.212Z,15.87
2018-04-22T07:25:41.650Z,16.30
2018-04-22T07:28:09.857Z,18.43
2018-04-22T07:30:37.295Z,15.03
2018-04-22T07:33:04.736Z,18.40
2018-04-22T07:35:32.938Z,18.67
2018-04-22T07:38:00.395Z,15.30
2018-04-22T07:40:27.820Z,14.83
2018-04-22T07:42:56.018Z,13.50
2018-04-22T07:45:23.450Z,22.90
2018-04-22T07:47:51.682Z,13.00
2018-04-22T07:50:19.109Z,14.30
2018-04-22T07:52:46.560Z,18.43
2018-04-22T07:55:14.003Z,17.73
2018-04-22T07:57:41.451Z,13.27
2018-04-22T08:00:09.657Z,13.73
2018-04-22T08:02:37.098Z,12.80
2018-04-22T08:05:04.542Z,15.70
2018-04-22T08:07:32.748Z,15.70
2018-04-22T08:10:00.188Z,17.03
2018-04-22T08:12:27.634Z,16.87
2018-04-22T08:14:55.078Z,15.23
2018-04-22T08:17:23.291Z,12.83
2018-04-22T08:19:50.730Z,17.50
2018-04-22T08:22:18.192Z,15.60
2018-04-22T08:24:45.688Z,13.67
2018-04-22T08:27:13.122Z,14.13
2018-04-22T08:29:40.575Z,12.13
2018-04-22T08:32:08.010Z,10.90
2018-04-22T08:34:35.457Z,13.10
2018-04-22T08:37:02.893Z,11.77
2018-04-22T08:39:31.096Z,16.80
2018-04-22T08:41:58.531Z,9.00
2018-04-22T08:44:26.739Z,13.60
2018-04-22T08:46:54.176Z,10.60
2018-04-22T08:49:21.650Z,16.03
2018-04-22T08:51:49.066Z,10.73
2018-04-22T08:54:17.279Z,12.27
2018-04-22T08:56:44.802Z,12.63
2018-04-22T08:59:12.148Z,10.73
2018-04-22T09:01:39.578Z,11.10
2018-04-22T09:04:07.023Z,9.80
2018-04-22T09:06:34.454Z,11.83
2018-04-22T09:09:01.895Z,13.40
2018-04-22T09:11:29.323Z,10.47
2018-04-22T09:13:56.766Z,12.63
2018-04-22T09:16:24.205Z,14.73
2018-04-22T09:18:51.637Z,11.07
2018-04-22T09:21:19.083Z,10.37
2018-04-22T09:23:46.517Z,8.37
2018-04-22T09:26:14.728Z,11.07
2018-04-22T09:28:42.182Z,9.23
2018-04-22T09:31:09.625Z,9.90
2018-04-22T09:33:37.052Z,9.77
2018-04-22T09:36:05.622Z,12.83
2018-04-22T09:38:33.059Z,9.17
2018-04-22T09:41:01.858Z,8.90
2018-04-22T09:43:29.295Z,8.83
2018-04-22T09:45:56.749Z,8.97
2018-04-22T09:48:24.185Z,11.70
2018-04-22T09:50:51.611Z,10.13
2018-04-22T09:53:19.822Z,11.73
2018-04-22T09:55:47.336Z,12.00
2018-04-22T09:58:15.545Z,7.90
2018-04-22T10:00:42.992Z,7.87
2018-04-22T10:03:10.422Z,10.60
2018-04-22T10:05:44.235Z,8.73
2018-04-22T10:08:12.442Z,10.00
2018-04-22T10:10:42.772Z,8.07
2018-04-22T10:13:10.195Z,9.00
2018-04-22T10:15:37.633Z,10.80
2018-04-22T10:18:05.056Z,8.47
2018-04-22T10:20:32.502Z,8.60
2018-04-22T10:22:59.939Z,15.30
2018-04-22T10:25:27.383Z,10.07
2018-04-22T10:27:54.814Z,9.23
2018-04-22T10:30:23.029Z,8.20
2018-04-22T10:32:51.151Z,9.57
2018-04-22T10:35:19.034Z,8.20
2018-04-22T10:37:47.239Z,7.90
2018-04-22T10:40:14.698Z,9.10
2018-04-22T10:42:42.138Z,10.20
2018-04-22T10:45:09.564Z,9.30
2018-04-22T10:47:37.776Z,14.20
2018-04-22T10:50:05.194Z,8.83
2018-04-22T10:52:33.395Z,10.37
2018-04-22T10:55:00.822Z,7.80
2018-04-22T10:57:28.651Z,6.77
2018-04-22T10:59:56.134Z,10.13
2018-04-22T11:02:23.531Z,10.60
2018-04-22T11:04:50.961Z,7.83
2018-04-22T11:07:19.179Z,13.40
2018-04-22T11:09:46.602Z,8.30
2018-04-22T11:12:14.043Z,7.30
2018-04-22T11:14:41.478Z,10.57
2018-04-22T11:17:08.919Z,11.57
2018-04-22T11:19:36.350Z,9.03
2018-04-22T11:22:03.807Z,11.17
2018-04-22T11:24:31.233Z,9.73
2018-04-22T11:26:59.441Z,6.60
2018-04-22T11:29:27.629Z,10.27
2018-04-22T11:31:55.177Z,8.90
2018-04-22T11:34:22.610Z,9.90
2018-04-22T11:36:50.056Z,10.87
2018-04-22T11:39:17.482Z,7.10
2018-04-22T11:41:44.923Z,7.30
2018-04-22T11:44:12.359Z,7.33
2018-04-22T11:46:39.804Z,9.53
2018-04-22T11:49:08.007Z,8.40
2018-04-22T11:51:35.450Z,8.30
2018-04-22T11:54:02.899Z,9.77
2018-04-22T11:56:30.359Z,6.50
2018-04-22T11:58:57.787Z,7.10
2018-04-22T12:01:25.222Z,8.13
2018-04-22T12:03:53.433Z,9.17
2018-04-22T12:06:20.855Z,6.33
2018-04-22T12:08:48.290Z,8.47
2018-04-22T12:11:15.710Z,8.97
2018-04-22T12:13:43.155Z,10.23
2018-04-22T12:16:10.583Z,9.00
2018-04-22T12:18:38.786Z,7.53
2018-04-22T12:21:06.228Z,6.83
2018-04-22T12:23:33.675Z,7.67
2018-04-22T12:26:01.483Z,7.50
2018-04-22T12:28:28.918Z,9.67
2018-04-22T12:30:56.351Z,6.47
2018-04-22T12:33:23.831Z,11.33
2018-04-22T12:35:51.253Z,9.13
2018-04-22T12:38:19.463Z,7.40
2018-04-22T12:40:46.897Z,8.87
2018-04-22T12:43:14.337Z,7.60
2018-04-22T12:45:42.578Z,8.60
2018-04-22T12:48:10.028Z,8.10
2018-04-22T12:50:37.459Z,6.07
2018-04-22T12:53:04.899Z,7.77
2018-04-22T12:55:32.330Z,8.07
2018-04-22T12:58:00.530Z,9.70
2018-04-22T13:00:27.963Z,11.63
2018-04-22T13:02:55.405Z,12.80
2018-04-22T13:05:22.839Z,7.73
2018-04-22T13:07:50.509Z,6.17
2018-04-22T13:10:17.987Z,11.03
2018-04-22T13:12:45.430Z,8.70
2018-04-22T13:15:12.871Z,9.43
2018-04-22T13:17:40.317Z,6.80
2018-04-22T13:20:07.746Z,6.40
2018-04-22T13:22:35.170Z,6.73
2018-04-22T13:25:03.384Z,8.97
2018-04-22T13:27:30.808Z,6.00
2018-04-22T13:29:59.010Z,6.07
2018-04-22T13:32:26.442Z,5.80
2018-04-22T13:34:53.875Z,5.90
2018-04-22T13:37:21.306Z,6.50
2018-04-22T13:39:48.755Z,15.63
2018-04-22T13:42:16.189Z,8.20
2018-04-22T13:44:43.614Z,9.77
2018-04-22T13:47:11.052Z,7.00
2018-04-22T13:49:38.487Z,9.10
2018-04-22T13:52:05.926Z,7.53
2018-04-22T13:54:33.402Z,7.00
2018-04-22T13:57:00.821Z,9.90
2018-04-22T13:59:28.256Z,7.10
2018-04-22T14:01:56.455Z,7.40
2018-04-22T14:04:23.898Z,6.07
2018-04-22T14:06:51.331Z,8.63
2018-04-22T14:09:19.539Z,9.50
2018-04-22T14:11:46.962Z,5.97
2018-04-22T14:14:15.172Z,8.10
2018-04-22T14:16:42.603Z,5.80
2018-04-22T14:19:10.037Z,6.13
2018-04-22T14:21:37.470Z,10.27
2018-04-22T14:24:04.901Z,6.87
2018-04-22T14:26:32.334Z,5.83
2018-04-22T14:28:59.764Z,8.27
2018-04-22T14:31:27.958Z,7.97
2018-04-22T14:33:55.391Z,12.13
2018-04-22T14:36:23.600Z,7.70
2018-04-22T14:38:51.029Z,7.20
2018-04-22T14:41:19.230Z,6.70
2018-04-22T14:43:58.489Z,5.90
2018-04-22T14:46:25.925Z,6.93
2018-04-22T14:49:05.258Z,14.00
2018-04-22T14:51:32.709Z,6.93
2018-04-22T14:54:00.138Z,6.90
2018-04-22T14:56:28.348Z,5.47
2018-04-22T14:58:55.789Z,6.10
2018-04-22T15:01:23.229Z,9.63
2018-04-22T15:03:51.438Z,10.00
2018-04-22T15:06:18.886Z,8.83
2018-04-22T15:08:46.331Z,10.10
2018-04-22T15:11:13.768Z,6.43
2018-04-22T15:13:42.339Z,6.10
2018-04-22T15:16:09.769Z,5.90
2018-04-22T15:18:37.204Z,9.00
2018-04-22T15:21:04.651Z,4.93
2018-04-22T15:23:32.074Z,9.13
2018-04-22T15:26:00.289Z,6.63
2018-04-22T15:28:27.723Z,8.40
2018-04-22T15:30:55.159Z,7.47
2018-04-22T15:33:23.567Z,6.27
2018-04-22T15:35:50.990Z,8.60
2018-04-22T15:38:19.186Z,5.93
2018-04-22T15:40:46.613Z,5.67
2018-04-22T15:43:14.822Z,5.17
2018-04-22T15:45:43.029Z,7.80
2018-04-22T15:48:10.479Z,6.33
2018-04-22T15:50:37.899Z,8.07
2018-04-22T15:53:05.346Z,6.60
2018-04-22T15:55:33.540Z,5.77
2018-04-22T15:58:00.973Z,6.87
2018-04-22T16:00:28.415Z,10.57
2018-04-22T16:02:55.874Z,7.43
2018-04-22T16:05:24.080Z,7.03
2018-04-22T16:07:51.532Z,6.87
2018-04-22T16:10:19.727Z,8.10
2018-04-22T16:12:47.927Z,7.23
2018-04-22T16:15:15.364Z,8.87
2018-04-22T16:17:42.807Z,6.60
2018-04-22T16:20:10.271Z,10.93
2018-04-22T16:22:37.710Z,5.37
2018-04-22T16:25:05.142Z,5.50
2018-04-22T16:27:33.346Z,6.30
2018-04-22T16:30:00.774Z,8.87
2018-04-22T16:32:28.215Z,7.67
2018-04-22T16:34:56.419Z,9.00
2018-04-22T16:37:23.859Z,4.63
2018-04-22T16:39:52.062Z,7.90
2018-04-22T16:42:19.504Z,7.93
2018-04-22T16:44:46.930Z,5.17
2018-04-22T16:47:15.241Z,6.00
2018-04-22T16:49:42.714Z,7.20
2018-04-22T16:52:10.159Z,9.30
2018-04-22T16:54:37.586Z,6.67
2018-04-22T16:57:05.018Z,5.53
2018-04-22T16:59:32.454Z,6.67
2018-04-22T17:01:59.983Z,8.73
2018-04-22T17:04:27.423Z,6.90
2018-04-22T17:06:54.862Z,7.23
2018-04-22T17:09:23.070Z,5.97
2018-04-22T17:11:51.240Z,10.70
2018-04-22T17:14:18.663Z,5.40
2018-04-22T17:16:46.868Z,8.37
2018-04-22T17:19:14.295Z,12.50
2018-04-22T17:21:42.506Z,7.07
2018-04-22T17:24:10.012Z,6.70
2018-04-22T17:26:37.421Z,6.80
2018-04-22T17:29:04.869Z,6.70
2018-04-22T17:31:32.291Z,9.20
2018-04-22T17:34:00.501Z,6.03
2018-04-22T17:36:27.945Z,6.57
2018-04-22T17:38:55.374Z,7.87
2018-04-22T17:41:23.586Z,6.33
2018-04-22T17:43:51.715Z,7.43
2018-04-22T17:46:19.932Z,8.17
2018-04-22T17:48:47.359Z,9.57
2018-04-22T17:51:15.942Z,8.17
2018-04-22T17:53:44.154Z,8.03
2018-04-22T17:56:12.354Z,8.87
2018-04-22T17:58:39.778Z,7.07
2018-04-22T18:01:07.220Z,6.50
2018-04-22T18:03:34.655Z,6.40
2018-04-22T18:06:02.877Z,9.53
2018-04-22T18:08:30.299Z,9.77
2018-04-22T18:10:57.741Z,8.00
2018-04-22T18:13:25.953Z,9.30
2018-04-22T18:15:53.396Z,9.80
2018-04-22T18:18:20.826Z,6.60
2018-04-22T18:20:49.035Z,8.93
2018-04-22T18:23:16.482Z,6.83
2018-04-22T18:25:43.914Z,7.70
2018-04-22T18:28:12.115Z,8.73
2018-04-22T18:30:39.543Z,9.40
2018-04-22T18:33:07.785Z,8.47
2018-04-22T18:35:35.182Z,10.57
2018-04-22T18:38:02.626Z,8.67
2018-04-22T18:40:30.820Z,8.77
2018-04-22T18:42:58.254Z,7.80
2018-04-22T18:45:26.462Z,9.33
2018-04-22T18:47:53.895Z,7.63
2018-04-22T18:50:22.104Z,17.73
2018-04-22T18:52:49.559Z,14.47
2018-04-22T18:55:17.015Z,9.90
2018-04-22T18:57:44.431Z,10.60
2018-04-22T19:00:11.894Z,13.23
2018-04-22T19:02:39.341Z,12.03
2018-04-22T19:05:07.562Z,9.37
2018-04-22T19:07:34.996Z,8.63
2018-04-22T19:10:02.423Z,9.80
2018-04-22T19:12:30.622Z,8.63
2018-04-22T19:14:58.051Z,9.40
2018-04-22T19:17:25.484Z,9.27
2018-04-22T19:19:52.919Z,7.70
2018-04-22T19:22:20.371Z,7.80
2018-04-22T19:24:47.814Z,8.37
2018-04-22T19:27:15.270Z,11.67
2018-04-22T19:29:42.702Z,10.43
2018-04-22T19:32:10.910Z,10.07
2018-04-22T19:34:38.399Z,7.87
2018-04-22T19:37:06.060Z,6.97
2018-04-22T19:39:33.502Z,7.13
2018-04-22T19:42:00.969Z,11.47
2018-04-22T19:44:28.427Z,11.00
2018-04-22T19:46:55.882Z,8.97
2018-04-22T19:49:23.641Z,8.00
2018-04-22T19:51:51.132Z,8.40
2018-04-22T19:54:18.632Z,10.20
2018-04-22T19:56:46.135Z,11.97
2018-04-22T19:59:13.629Z,11.73
2018-04-22T20:01:41.318Z,7.60
2018-04-22T20:04:08.815Z,6.90
2018-04-22T20:06:36.353Z,10.13
2018-04-22T20:09:03.909Z,11.20
2018-04-22T20:11:31.442Z,9.57
2018-04-22T20:13:58.975Z,9.40
2018-04-22T20:16:26.486Z,7.70
2018-04-22T20:18:54.039Z,7.47
2018-04-22T20:21:21.480Z,9.17
2018-04-22T20:23:48.951Z,10.10
2018-04-22T20:26:16.419Z,10.73
2018-04-22T20:28:43.911Z,7.67
2018-04-22T20:31:11.382Z,8.90
2018-04-22T20:33:38.886Z,8.57
2018-04-22T20:36:06.324Z,10.00
2018-04-22T20:38:33.815Z,14.47
2018-04-22T20:41:01.298Z,7.53
2018-04-22T20:43:28.751Z,8.20
2018-04-22T20:45:56.356Z,10.10
2018-04-22T20:48:24.985Z,7.07
2018-04-22T20:50:53.262Z,7.53
2018-04-22T20:53:20.819Z,9.33
2018-04-22T20:55:48.346Z,6.50
2018-04-22T20:58:15.988Z,11.63
2018-04-22T21:00:43.654Z,7.60
2018-04-22T21:03:11.231Z,7.37
2018-04-22T21:05:38.781Z,8.80
2018-04-22T21:08:06.247Z,9.30
2018-04-22T21:10:33.728Z,8.27
2018-04-22T21:13:02.000Z,7.00
2018-04-22T21:15:29.544Z,7.33
2018-04-22T21:17:57.023Z,9.57
2018-04-22T21:20:25.275Z,6.90
2018-04-22T21:22:52.754Z,6.97
2018-04-22T21:25:21.007Z,10.63
2018-04-22T21:27:48.520Z,6.27
2018-04-22T21:30:16.035Z,8.37
2018-04-22T21:32:44.299Z,6.80
2018-04-22T21:35:12.246Z,8.97
2018-04-22T21:37:40.187Z,9.53
2018-04-22T21:40:08.551Z,10.93
2018-04-22T21:42:35.992Z,8.57
2018-04-22T21:45:03.482Z,14.17
2018-04-22T21:47:31.358Z,7.80
2018-04-22T21:49:58.901Z,7.93
2018-04-22T21:52:26.404Z,8.40
2018-04-22T21:54:54.683Z,6.70
2018-04-22T21:57:22.204Z,6.53
2018-04-22T21:59:49.767Z,8.40
2018-04-22T22:02:18.026Z,9.17
2018-04-22T22:04:45.538Z,8.10
2018-04-22T22:07:13.815Z,8.30
2018-04-22T22:09:41.334Z,7.57
2018-04-22T22:12:08.808Z,7.17
2018-04-22T22:14:36.288Z,6.70
2018-04-22T22:17:04.586Z,10.83
2018-04-22T22:19:32.104Z,7.03
2018-04-22T22:21:59.647Z,6.33
2018-04-22T22:24:27.147Z,9.73
2018-04-22T22:26:55.423Z,8.53
2018-04-22T22:29:22.906Z,7.20
2018-04-22T22:31:50.407Z,7.60
2018-04-22T22:34:17.941Z,7.50
2018-04-22T22:36:45.440Z,6.67
2018-04-22T22:39:12.955Z,8.67
2018-04-22T22:41:40.442Z,6.97
2018-04-22T22:44:07.874Z,10.77
2018-04-22T22:46:35.322Z,6.90
2018-04-22T22:49:02.803Z,11.33
2018-04-22T22:51:30.322Z,9.80
2018-04-22T22:53:57.788Z,8.03
2018-04-22T22:56:25.279Z,6.53
2018-04-22T22:58:52.780Z,11.20
2018-04-22T23:01:20.220Z,13.33
2018-04-22T23:03:48.426Z,8.77
2018-04-22T23:06:15.885Z,8.20
2018-04-22T23:08:43.400Z,7.00
2018-04-22T23:11:10.842Z,6.17
2018-04-22T23:13:38.335Z,7.80
2018-04-22T23:16:05.831Z,7.33
2018-04-22T23:18:33.350Z,7.60
2018-04-22T23:21:00.881Z,9.10
2018-04-22T23:23:28.362Z,13.00
2018-04-22T23:25:55.916Z,9.23
2018-04-22T23:28:24.167Z,6.63
2018-04-22T23:30:51.634Z,6.43
2018-04-22T23:33:19.883Z,9.03
2018-04-22T23:35:47.420Z,6.83
2018-04-22T23:38:14.943Z,11.23
2018-04-22T23:40:42.430Z,8.70
2018-04-22T23:43:09.955Z,7.87
2018-04-22T23:45:38.229Z,9.60
2018-04-22T23:48:06.526Z,10.70
2018-04-22T23:50:34.038Z,11.50
2018-04-22T23:53:01.484Z,8.23
2018-04-22T23:55:28.992Z,7.90
2018-04-22T23:57:56.534Z,8.10
